sensor_id;sensor_type;location;lat;lon;timestamp;P1;durP1;ratioP1;P2;durP2;ratioP2
24419;SDS011;12599;52.426;13.330;2022-09-12T00:03:50;3.83;;;3.10;;
24419;SDS011;12599;52.426;13.330;2022-09-12T00:06:18;3.63;;;2.90;;
24419;SDS011;12599;52.426;13.330;2022-09-12T00:08:57;4.13;;;3.40;;
24419;SDS011;12599;52.426;13.330;2022-09-12T00:11:28;5.27;;;3.10;;
24419;SDS011;12599;52.426;13.330;2022-09-12T00:13:54;4.50;;;3.27;;
24419;SDS011;12599;52.426;13.330;2022-09-12T00:16:23;4.20;;;3.20;;
24419;SDS011;12599;52.426;13.330;2022-09-12T00:18:50;3.73;;;2.90;;
24419;SDS011;12599;52.426;13.330;2022-09-12T00:21:17;4.00;;;3.10;;
24419;SDS011;12599;52.426;13.330;2022-09-12T00:23:43;4.47;;;3.30;;
24419;SDS011;12599;52.426;13.330;2022-09-12T00:26:09;3.97;;;3.37;;
24419;SDS011;12599;52.426;13.330;2022-09-12T00:28:37;4.80;;;3.60;;
24419;SDS011;12599;52.426;13.330;2022-09-12T00:31:05;5.70;;;3.37;;
24419;SDS011;12599;52.426;13.330;2022-09-12T00:33:33;4.20;;;3.33;;
24419;SDS011;12599;52.426;13.330;2022-09-12T00:36:02;4.03;;;3.50;;
24419;SDS011;12599;52.426;13.330;2022-09-12T00:38:30;4.10;;;2.93;;
24419;SDS011;12599;52.426;13.330;2022-09-12T00:40:56;6.37;;;3.47;;
24419;SDS011;12599;52.426;13.330;2022-09-12T00:46:04;4.83;;;3.40;;
24419;SDS011;12599;52.426;13.330;2022-09-12T00:48:41;4.07;;;3.33;;
24419;SDS011;12599;52.426;13.330;2022-09-12T00:51:11;3.87;;;3.47;;
24419;SDS011;12599;52.426;13.330;2022-09-12T00:53:38;4.60;;;3.40;;
24419;SDS011;12599;52.426;13.330;2022-09-12T00:56:07;3.87;;;3.37;;
24419;SDS011;12599;52.426;13.330;2022-09-12T00:58:46;4.23;;;3.23;;
24419;SDS011;12599;52.426;13.330;2022-09-12T01:01:32;4.07;;;3.17;;
24419;SDS011;12599;52.426;13.330;2022-09-12T01:03:58;5.87;;;2.97;;
24419;SDS011;12599;52.426;13.330;2022-09-12T01:06:30;4.43;;;3.23;;
24419;SDS011;12599;52.426;13.330;2022-09-12T01:08:59;5.80;;;3.60;;
24419;SDS011;12599;52.426;13.330;2022-09-12T01:11:29;6.57;;;3.47;;
24419;SDS011;12599;52.426;13.330;2022-09-12T01:13:56;4.10;;;3.70;;
24419;SDS011;12599;52.426;13.330;2022-09-12T01:16:21;3.17;;;2.93;;
24419;SDS011;12599;52.426;13.330;2022-09-12T01:21:48;3.60;;;3.10;;
24419;SDS011;12599;52.426;13.330;2022-09-12T01:30:02;3.37;;;2.90;;
24419;SDS011;12599;52.426;13.330;2022-09-12T01:43:17;3.10;;;2.90;;
24419;SDS011;12599;52.426;13.330;2022-09-12T01:45:57;4.53;;;3.57;;
24419;SDS011;12599;52.426;13.330;2022-09-12T01:48:45;4.00;;;3.20;;
24419;SDS011;12599;52.426;13.330;2022-09-12T01:51:24;3.50;;;3.20;;
24419;SDS011;12599;52.426;13.330;2022-09-12T01:54:05;3.30;;;3.00;;
24419;SDS011;12599;52.426;13.330;2022-09-12T01:56:40;3.37;;;3.07;;
24419;SDS011;12599;52.426;13.330;2022-09-12T01:59:09;4.07;;;3.27;;
24419;SDS011;12599;52.426;13.330;2022-09-12T02:01:48;4.17;;;3.40;;
24419;SDS011;12599;52.426;13.330;2022-09-12T02:04:29;3.70;;;3.20;;
24419;SDS011;12599;52.426;13.330;2022-09-12T02:07:13;4.73;;;3.40;;
24419;SDS011;12599;52.426;13.330;2022-09-12T02:09:45;3.47;;;3.17;;
24419;SDS011;12599;52.426;13.330;2022-09-12T02:12:19;4.63;;;3.37;;
24419;SDS011;12599;52.426;13.330;2022-09-12T02:14:54;4.57;;;3.13;;
24419;SDS011;12599;52.426;13.330;2022-09-12T02:17:25;4.57;;;4.17;;
24419;SDS011;12599;52.426;13.330;2022-09-12T02:19:54;4.20;;;3.20;;
24419;SDS011;12599;52.426;13.330;2022-09-12T02:22:24;3.40;;;3.03;;
24419;SDS011;12599;52.426;13.330;2022-09-12T02:24:53;3.50;;;3.20;;
24419;SDS011;12599;52.426;13.330;2022-09-12T02:27:25;4.97;;;3.30;;
24419;SDS011;12599;52.426;13.330;2022-09-12T02:29:57;3.30;;;3.00;;
24419;SDS011;12599;52.426;13.330;2022-09-12T02:33:13;4.90;;;3.60;;
24419;SDS011;12599;52.426;13.330;2022-09-12T02:38:06;4.23;;;3.00;;
24419;SDS011;12599;52.426;13.330;2022-09-12T02:40:40;6.23;;;3.23;;
24419;SDS011;12599;52.426;13.330;2022-09-12T02:43:05;3.90;;;3.10;;
24419;SDS011;12599;52.426;13.330;2022-09-12T02:45:32;4.37;;;3.53;;
24419;SDS011;12599;52.426;13.330;2022-09-12T02:48:05;3.40;;;3.10;;
24419;SDS011;12599;52.426;13.330;2022-09-12T02:50:32;4.33;;;3.63;;
24419;SDS011;12599;52.426;13.330;2022-09-12T02:52:59;3.93;;;3.53;;
24419;SDS011;12599;52.426;13.330;2022-09-12T02:55:28;4.27;;;3.23;;
24419;SDS011;12599;52.426;13.330;2022-09-12T02:58:02;3.83;;;3.43;;
24419;SDS011;12599;52.426;13.330;2022-09-12T03:00:53;4.30;;;3.37;;
24419;SDS011;12599;52.426;13.330;2022-09-12T03:19:24;4.57;;;3.70;;
24419;SDS011;12599;52.426;13.330;2022-09-12T03:25:08;5.43;;;3.47;;
24419;SDS011;12599;52.426;13.330;2022-09-12T03:28:09;3.57;;;3.27;;
24419;SDS011;12599;52.426;13.330;2022-09-12T03:30:38;6.83;;;4.10;;
24419;SDS011;12599;52.426;13.330;2022-09-12T03:33:11;5.73;;;3.67;;
24419;SDS011;12599;52.426;13.330;2022-09-12T03:35:41;4.47;;;3.40;;
24419;SDS011;12599;52.426;13.330;2022-09-12T03:38:07;4.37;;;3.50;;
24419;SDS011;12599;52.426;13.330;2022-09-12T03:40:33;3.40;;;3.10;;
24419;SDS011;12599;52.426;13.330;2022-09-12T03:43:00;4.87;;;3.63;;
24419;SDS011;12599;52.426;13.330;2022-09-12T03:45:26;6.70;;;3.70;;
24419;SDS011;12599;52.426;13.330;2022-09-12T03:47:52;3.63;;;3.33;;
24419;SDS011;12599;52.426;13.330;2022-09-12T03:50:18;4.70;;;3.73;;
24419;SDS011;12599;52.426;13.330;2022-09-12T03:52:43;6.17;;;3.60;;
24419;SDS011;12599;52.426;13.330;2022-09-12T03:55:09;6.43;;;4.20;;
24419;SDS011;12599;52.426;13.330;2022-09-12T03:57:35;3.83;;;3.43;;
24419;SDS011;12599;52.426;13.330;2022-09-12T04:00:00;4.70;;;3.53;;
24419;SDS011;12599;52.426;13.330;2022-09-12T04:02:27;4.30;;;3.57;;
24419;SDS011;12599;52.426;13.330;2022-09-12T04:04:53;4.00;;;3.60;;
24419;SDS011;12599;52.426;13.330;2022-09-12T04:07:19;5.17;;;3.60;;
24419;SDS011;12599;52.426;13.330;2022-09-12T04:09:44;3.57;;;3.27;;
24419;SDS011;12599;52.426;13.330;2022-09-12T04:12:11;5.80;;;4.20;;
24419;SDS011;12599;52.426;13.330;2022-09-12T04:14:38;7.20;;;3.97;;
24419;SDS011;12599;52.426;13.330;2022-09-12T04:17:04;5.37;;;4.30;;
24419;SDS011;12599;52.426;13.330;2022-09-12T04:19:29;5.00;;;3.80;;
24419;SDS011;12599;52.426;13.330;2022-09-12T04:21:55;4.30;;;3.60;;
24419;SDS011;12599;52.426;13.330;2022-09-12T04:24:21;4.67;;;4.27;;
24419;SDS011;12599;52.426;13.330;2022-09-12T04:26:46;7.07;;;3.53;;
24419;SDS011;12599;52.426;13.330;2022-09-12T04:29:12;4.27;;;3.80;;
24419;SDS011;12599;52.426;13.330;2022-09-12T04:31:39;7.83;;;4.20;;
24419;SDS011;12599;52.426;13.330;2022-09-12T04:34:05;3.97;;;3.57;;
24419;SDS011;12599;52.426;13.330;2022-09-12T04:36:31;4.83;;;3.77;;
24419;SDS011;12599;52.426;13.330;2022-09-12T04:38:58;4.90;;;4.17;;
24419;SDS011;12599;52.426;13.330;2022-09-12T04:41:26;6.97;;;4.00;;
24419;SDS011;12599;52.426;13.330;2022-09-12T04:43:54;5.97;;;4.53;;
24419;SDS011;12599;52.426;13.330;2022-09-12T04:46:28;4.90;;;3.93;;
24419;SDS011;12599;52.426;13.330;2022-09-12T04:48:55;5.33;;;4.23;;
24419;SDS011;12599;52.426;13.330;2022-09-12T04:51:22;6.60;;;4.43;;
24419;SDS011;12599;52.426;13.330;2022-09-12T04:53:53;8.90;;;4.77;;
24419;SDS011;12599;52.426;13.330;2022-09-12T04:56:22;5.10;;;4.33;;
24419;SDS011;12599;52.426;13.330;2022-09-12T04:58:48;5.80;;;5.00;;
24419;SDS011;12599;52.426;13.330;2022-09-12T05:01:17;5.60;;;4.27;;
24419;SDS011;12599;52.426;13.330;2022-09-12T05:03:44;6.30;;;4.30;;
24419;SDS011;12599;52.426;13.330;2022-09-12T05:06:22;4.93;;;4.23;;
24419;SDS011;12599;52.426;13.330;2022-09-12T05:08:49;8.03;;;5.30;;
24419;SDS011;12599;52.426;13.330;2022-09-12T05:11:17;6.40;;;4.77;;
24419;SDS011;12599;52.426;13.330;2022-09-12T05:13:44;5.43;;;4.53;;
24419;SDS011;12599;52.426;13.330;2022-09-12T05:16:10;6.27;;;4.67;;
24419;SDS011;12599;52.426;13.330;2022-09-12T05:18:39;5.60;;;4.80;;
24419;SDS011;12599;52.426;13.330;2022-09-12T05:21:05;7.00;;;5.30;;
24419;SDS011;12599;52.426;13.330;2022-09-12T05:23:33;6.97;;;4.67;;
24419;SDS011;12599;52.426;13.330;2022-09-12T05:25:59;6.40;;;4.87;;
24419;SDS011;12599;52.426;13.330;2022-09-12T05:28:33;7.67;;;5.33;;
24419;SDS011;12599;52.426;13.330;2022-09-12T05:33:27;8.90;;;5.87;;
24419;SDS011;12599;52.426;13.330;2022-09-12T05:35:52;7.27;;;5.20;;
24419;SDS011;12599;52.426;13.330;2022-09-12T05:38:18;6.80;;;5.50;;
24419;SDS011;12599;52.426;13.330;2022-09-12T05:40:44;11.73;;;6.40;;
24419;SDS011;12599;52.426;13.330;2022-09-12T05:43:09;6.37;;;5.10;;
24419;SDS011;12599;52.426;13.330;2022-09-12T05:45:36;9.10;;;6.00;;
24419;SDS011;12599;52.426;13.330;2022-09-12T05:48:02;10.17;;;5.80;;
24419;SDS011;12599;52.426;13.330;2022-09-12T05:50:28;6.97;;;5.83;;
24419;SDS011;12599;52.426;13.330;2022-09-12T05:52:53;6.50;;;5.40;;
24419;SDS011;12599;52.426;13.330;2022-09-12T05:55:20;7.33;;;5.57;;
24419;SDS011;12599;52.426;13.330;2022-09-12T05:57:47;8.63;;;5.83;;
24419;SDS011;12599;52.426;13.330;2022-09-12T06:00:13;7.67;;;5.20;;
24419;SDS011;12599;52.426;13.330;2022-09-12T06:02:39;7.30;;;5.40;;
24419;SDS011;12599;52.426;13.330;2022-09-12T06:05:04;6.53;;;5.43;;
24419;SDS011;12599;52.426;13.330;2022-09-12T06:07:30;9.80;;;5.93;;
24419;SDS011;12599;52.426;13.330;2022-09-12T06:09:56;6.60;;;5.90;;
24419;SDS011;12599;52.426;13.330;2022-09-12T06:12:23;7.13;;;5.43;;
24419;SDS011;12599;52.426;13.330;2022-09-12T06:14:50;6.83;;;5.27;;
24419;SDS011;12599;52.426;13.330;2022-09-12T06:17:16;6.50;;;5.20;;
24419;SDS011;12599;52.426;13.330;2022-09-12T06:19:42;7.73;;;5.67;;
24419;SDS011;12599;52.426;13.330;2022-09-12T06:22:08;9.40;;;5.60;;
24419;SDS011;12599;52.426;13.330;2022-09-12T06:24:34;8.80;;;5.87;;
24419;SDS011;12599;52.426;13.330;2022-09-12T06:27:00;7.30;;;5.77;;
24419;SDS011;12599;52.426;13.330;2022-09-12T06:29:26;6.57;;;5.53;;
24419;SDS011;12599;52.426;13.330;2022-09-12T06:31:52;7.27;;;5.90;;
24419;SDS011;12599;52.426;13.330;2022-09-12T06:34:18;7.30;;;6.43;;
24419;SDS011;12599;52.426;13.330;2022-09-12T06:36:47;7.93;;;5.90;;
24419;SDS011;12599;52.426;13.330;2022-09-12T06:39:17;6.83;;;5.93;;
24419;SDS011;12599;52.426;13.330;2022-09-12T06:41:44;8.20;;;6.00;;
24419;SDS011;12599;52.426;13.330;2022-09-12T06:44:12;9.07;;;5.83;;
24419;SDS011;12599;52.426;13.330;2022-09-12T06:46:39;7.57;;;5.37;;
24419;SDS011;12599;52.426;13.330;2022-09-12T06:49:05;6.87;;;5.70;;
24419;SDS011;12599;52.426;13.330;2022-09-12T06:51:32;7.80;;;5.67;;
24419;SDS011;12599;52.426;13.330;2022-09-12T06:53:58;6.60;;;4.87;;
24419;SDS011;12599;52.426;13.330;2022-09-12T06:56:24;5.83;;;4.90;;
24419;SDS011;12599;52.426;13.330;2022-09-12T06:58:51;6.77;;;3.80;;
24419;SDS011;12599;52.426;13.330;2022-09-12T07:01:20;5.03;;;3.97;;
24419;SDS011;12599;52.426;13.330;2022-09-12T07:03:53;4.07;;;3.50;;
24419;SDS011;12599;52.426;13.330;2022-09-12T07:06:22;5.50;;;4.10;;
24419;SDS011;12599;52.426;13.330;2022-09-12T07:08:50;4.47;;;3.43;;
24419;SDS011;12599;52.426;13.330;2022-09-12T07:11:17;4.17;;;3.10;;
24419;SDS011;12599;52.426;13.330;2022-09-12T07:13:45;4.30;;;3.17;;
24419;SDS011;12599;52.426;13.330;2022-09-12T07:16:13;3.90;;;3.40;;
24419;SDS011;12599;52.426;13.330;2022-09-12T07:18:39;4.50;;;3.30;;
24419;SDS011;12599;52.426;13.330;2022-09-12T07:21:06;3.53;;;3.23;;
24419;SDS011;12599;52.426;13.330;2022-09-12T07:23:34;3.67;;;3.20;;
24419;SDS011;12599;52.426;13.330;2022-09-12T07:26:00;3.83;;;3.30;;
24419;SDS011;12599;52.426;13.330;2022-09-12T07:28:27;3.60;;;2.80;;
24419;SDS011;12599;52.426;13.330;2022-09-12T07:30:54;5.40;;;2.97;;
24419;SDS011;12599;52.426;13.330;2022-09-12T07:33:25;2.97;;;2.73;;
24419;SDS011;12599;52.426;13.330;2022-09-12T07:35:52;4.50;;;2.47;;
24419;SDS011;12599;52.426;13.330;2022-09-12T07:38:21;2.53;;;2.30;;
24419;SDS011;12599;52.426;13.330;2022-09-12T07:40:47;3.63;;;2.27;;
24419;SDS011;12599;52.426;13.330;2022-09-12T07:43:12;3.57;;;2.37;;
24419;SDS011;12599;52.426;13.330;2022-09-12T07:45:38;3.77;;;2.20;;
24419;SDS011;12599;52.426;13.330;2022-09-12T07:48:06;5.57;;;2.40;;
24419;SDS011;12599;52.426;13.330;2022-09-12T07:50:32;3.77;;;2.20;;
24419;SDS011;12599;52.426;13.330;2022-09-12T07:52:58;2.20;;;2.00;;
24419;SDS011;12599;52.426;13.330;2022-09-12T07:55:24;2.57;;;2.00;;
24419;SDS011;12599;52.426;13.330;2022-09-12T07:57:50;3.23;;;2.13;;
24419;SDS011;12599;52.426;13.330;2022-09-12T08:00:16;2.23;;;1.97;;
24419;SDS011;12599;52.426;13.330;2022-09-12T08:02:43;2.63;;;2.00;;
24419;SDS011;12599;52.426;13.330;2022-09-12T08:05:09;2.83;;;1.63;;
24419;SDS011;12599;52.426;13.330;2022-09-12T08:07:35;2.40;;;1.73;;
24419;SDS011;12599;52.426;13.330;2022-09-12T08:10:00;2.83;;;1.70;;
24419;SDS011;12599;52.426;13.330;2022-09-12T08:12:26;3.10;;;1.50;;
24419;SDS011;12599;52.426;13.330;2022-09-12T08:14:53;2.20;;;1.37;;
24419;SDS011;12599;52.426;13.330;2022-09-12T08:17:19;2.07;;;1.80;;
24419;SDS011;12599;52.426;13.330;2022-09-12T08:19:44;2.30;;;1.60;;
24419;SDS011;12599;52.426;13.330;2022-09-12T08:22:10;2.13;;;1.70;;
24419;SDS011;12599;52.426;13.330;2022-09-12T08:24:37;1.80;;;1.63;;
24419;SDS011;12599;52.426;13.330;2022-09-12T08:27:03;2.23;;;1.60;;
24419;SDS011;12599;52.426;13.330;2022-09-12T08:29:30;1.70;;;1.60;;
24419;SDS011;12599;52.426;13.330;2022-09-12T08:31:55;1.70;;;1.60;;
24419;SDS011;12599;52.426;13.330;2022-09-12T08:34:21;1.27;;;1.17;;
24419;SDS011;12599;52.426;13.330;2022-09-12T08:36:46;3.60;;;1.70;;
24419;SDS011;12599;52.426;13.330;2022-09-12T08:39:12;1.43;;;1.30;;
24419;SDS011;12599;52.426;13.330;2022-09-12T08:41:45;3.93;;;1.80;;
24419;SDS011;12599;52.426;13.330;2022-09-12T08:55:35;3.53;;;1.50;;
24419;SDS011;12599;52.426;13.330;2022-09-12T08:58:16;1.63;;;1.37;;
24419;SDS011;12599;52.426;13.330;2022-09-12T09:00:57;3.20;;;1.37;;
24419;SDS011;12599;52.426;13.330;2022-09-12T09:09:28;1.87;;;1.20;;
24419;SDS011;12599;52.426;13.330;2022-09-12T09:17:57;2.63;;;1.37;;
24419;SDS011;12599;52.426;13.330;2022-09-12T09:23:40;1.50;;;1.40;;
24419;SDS011;12599;52.426;13.330;2022-09-12T09:26:28;2.73;;;1.80;;
24419;SDS011;12599;52.426;13.330;2022-09-12T09:31:41;1.63;;;1.20;;
24419;SDS011;12599;52.426;13.330;2022-09-12T09:34:14;1.87;;;1.57;;
24419;SDS011;12599;52.426;13.330;2022-09-12T09:36:51;1.53;;;1.10;;
24419;SDS011;12599;52.426;13.330;2022-09-12T09:45:10;1.50;;;1.40;;
24419;SDS011;12599;52.426;13.330;2022-09-12T09:47:40;1.57;;;1.40;;
24419;SDS011;12599;52.426;13.330;2022-09-12T09:50:13;2.17;;;1.90;;
24419;SDS011;12599;52.426;13.330;2022-09-12T09:52:40;3.43;;;1.70;;
24419;SDS011;12599;52.426;13.330;2022-09-12T09:55:09;2.70;;;1.50;;
24419;SDS011;12599;52.426;13.330;2022-09-12T09:57:42;3.50;;;1.50;;
24419;SDS011;12599;52.426;13.330;2022-09-12T10:03:02;5.17;;;1.47;;
24419;SDS011;12599;52.426;13.330;2022-09-12T10:05:29;3.10;;;1.50;;
24419;SDS011;12599;52.426;13.330;2022-09-12T10:07:57;1.20;;;1.10;;
24419;SDS011;12599;52.426;13.330;2022-09-12T10:10:23;1.53;;;1.20;;
24419;SDS011;12599;52.426;13.330;2022-09-12T10:12:49;1.40;;;1.17;;
24419;SDS011;12599;52.426;13.330;2022-09-12T10:17:46;1.57;;;1.27;;
24419;SDS011;12599;52.426;13.330;2022-09-12T10:23:03;1.93;;;1.30;;
24419;SDS011;12599;52.426;13.330;2022-09-12T10:26:00;2.33;;;1.50;;
24419;SDS011;12599;52.426;13.330;2022-09-12T10:31:26;2.57;;;1.60;;
24419;SDS011;12599;52.426;13.330;2022-09-12T10:33:58;3.23;;;1.47;;
24419;SDS011;12599;52.426;13.330;2022-09-12T10:36:24;2.40;;;1.37;;
24419;SDS011;12599;52.426;13.330;2022-09-12T10:38:59;0.90;;;0.90;;
24419;SDS011;12599;52.426;13.330;2022-09-12T10:41:26;1.33;;;1.00;;
24419;SDS011;12599;52.426;13.330;2022-09-12T10:44:06;1.50;;;1.10;;
24419;SDS011;12599;52.426;13.330;2022-09-12T10:46:38;2.17;;;1.27;;
24419;SDS011;12599;52.426;13.330;2022-09-12T10:51:51;2.57;;;1.00;;
24419;SDS011;12599;52.426;13.330;2022-09-12T10:54:18;2.53;;;0.90;;
24419;SDS011;12599;52.426;13.330;2022-09-12T10:56:52;2.27;;;0.80;;
24419;SDS011;12599;52.426;13.330;2022-09-12T11:05:01;3.23;;;1.23;;
24419;SDS011;12599;52.426;13.330;2022-09-12T11:08:02;1.07;;;0.97;;
24419;SDS011;12599;52.426;13.330;2022-09-12T11:13:42;1.63;;;0.90;;
24419;SDS011;12599;52.426;13.330;2022-09-12T11:16:43;2.17;;;1.00;;
24419;SDS011;12599;52.426;13.330;2022-09-12T11:22:28;1.53;;;1.23;;
24419;SDS011;12599;52.426;13.330;2022-09-12T11:30:45;3.00;;;0.80;;
24419;SDS011;12599;52.426;13.330;2022-09-12T11:33:40;1.67;;;0.90;;
24419;SDS011;12599;52.426;13.330;2022-09-12T11:41:33;2.63;;;0.97;;
24419;SDS011;12599;52.426;13.330;2022-09-12T11:44:03;1.33;;;1.00;;
24419;SDS011;12599;52.426;13.330;2022-09-12T11:46:46;0.83;;;0.83;;
24419;SDS011;12599;52.426;13.330;2022-09-12T11:49:18;1.53;;;0.80;;
24419;SDS011;12599;52.426;13.330;2022-09-12T11:52:02;1.70;;;1.00;;
24419;SDS011;12599;52.426;13.330;2022-09-12T11:54:42;0.77;;;0.70;;
24419;SDS011;12599;52.426;13.330;2022-09-12T11:57:27;1.07;;;0.97;;
24419;SDS011;12599;52.426;13.330;2022-09-12T12:00:18;0.73;;;0.73;;
24419;SDS011;12599;52.426;13.330;2022-09-12T12:08:05;1.20;;;0.83;;
24419;SDS011;12599;52.426;13.330;2022-09-12T12:10:35;2.27;;;0.90;;
24419;SDS011;12599;52.426;13.330;2022-09-12T12:13:02;1.60;;;0.87;;
24419;SDS011;12599;52.426;13.330;2022-09-12T12:15:51;0.90;;;0.90;;
24419;SDS011;12599;52.426;13.330;2022-09-12T12:18:24;0.83;;;0.83;;
24419;SDS011;12599;52.426;13.330;2022-09-12T12:20:51;1.77;;;1.10;;
24419;SDS011;12599;52.426;13.330;2022-09-12T12:23:22;1.00;;;0.90;;
24419;SDS011;12599;52.426;13.330;2022-09-12T12:25:55;2.03;;;1.10;;
24419;SDS011;12599;52.426;13.330;2022-09-12T12:31:07;0.80;;;0.80;;
24419;SDS011;12599;52.426;13.330;2022-09-12T12:36:04;1.47;;;1.10;;
24419;SDS011;12599;52.426;13.330;2022-09-12T12:38:35;0.73;;;0.70;;
24419;SDS011;12599;52.426;13.330;2022-09-12T12:43:43;2.20;;;1.30;;
24419;SDS011;12599;52.426;13.330;2022-09-12T12:46:11;2.47;;;1.10;;
24419;SDS011;12599;52.426;13.330;2022-09-12T12:51:25;1.73;;;1.10;;
24419;SDS011;12599;52.426;13.330;2022-09-12T12:54:01;1.37;;;0.90;;
24419;SDS011;12599;52.426;13.330;2022-09-12T12:56:33;2.00;;;0.93;;
24419;SDS011;12599;52.426;13.330;2022-09-12T12:59:00;1.37;;;1.00;;
24419;SDS011;12599;52.426;13.330;2022-09-12T13:01:35;1.10;;;1.00;;
24419;SDS011;12599;52.426;13.330;2022-09-12T13:04:11;1.20;;;1.10;;
24419;SDS011;12599;52.426;13.330;2022-09-12T13:06:43;1.87;;;1.10;;
24419;SDS011;12599;52.426;13.330;2022-09-12T13:11:45;0.93;;;0.90;;
24419;SDS011;12599;52.426;13.330;2022-09-12T13:17:03;0.90;;;0.90;;
24419;SDS011;12599;52.426;13.330;2022-09-12T13:19:31;1.93;;;0.90;;
24419;SDS011;12599;52.426;13.330;2022-09-12T13:24:25;2.17;;;1.13;;
24419;SDS011;12599;52.426;13.330;2022-09-12T13:26:51;1.30;;;1.20;;
24419;SDS011;12599;52.426;13.330;2022-09-12T13:29:21;1.47;;;1.20;;
24419;SDS011;12599;52.426;13.330;2022-09-12T13:31:50;2.53;;;1.10;;
24419;SDS011;12599;52.426;13.330;2022-09-12T13:34:19;1.57;;;1.03;;
24419;SDS011;12599;52.426;13.330;2022-09-12T13:47:55;3.30;;;1.13;;
24419;SDS011;12599;52.426;13.330;2022-09-12T13:50:27;1.30;;;1.10;;
24419;SDS011;12599;52.426;13.330;2022-09-12T13:53:01;1.40;;;1.30;;
24419;SDS011;12599;52.426;13.330;2022-09-12T13:58:22;1.07;;;1.00;;
24419;SDS011;12599;52.426;13.330;2022-09-12T14:01:10;2.50;;;0.80;;
24419;SDS011;12599;52.426;13.330;2022-09-12T14:03:39;1.00;;;0.80;;
24419;SDS011;12599;52.426;13.330;2022-09-12T14:09:25;1.00;;;0.90;;
24419;SDS011;12599;52.426;13.330;2022-09-12T14:11:56;1.20;;;1.10;;
24419;SDS011;12599;52.426;13.330;2022-09-12T14:14:35;2.23;;;1.20;;
24419;SDS011;12599;52.426;13.330;2022-09-12T14:19:59;2.17;;;1.07;;
24419;SDS011;12599;52.426;13.330;2022-09-12T14:22:47;1.20;;;1.10;;
24419;SDS011;12599;52.426;13.330;2022-09-12T14:25:21;3.53;;;1.10;;
24419;SDS011;12599;52.426;13.330;2022-09-12T14:27:55;1.07;;;1.00;;
24419;SDS011;12599;52.426;13.330;2022-09-12T14:35:29;1.63;;;1.20;;
24419;SDS011;12599;52.426;13.330;2022-09-12T14:37:56;1.53;;;0.97;;
24419;SDS011;12599;52.426;13.330;2022-09-12T14:40:39;3.10;;;1.17;;
24419;SDS011;12599;52.426;13.330;2022-09-12T14:45:53;2.10;;;1.20;;
24419;SDS011;12599;52.426;13.330;2022-09-12T14:48:23;3.10;;;1.10;;
24419;SDS011;12599;52.426;13.330;2022-09-12T14:50:50;2.67;;;1.17;;
24419;SDS011;12599;52.426;13.330;2022-09-12T14:56:16;3.57;;;1.23;;
24419;SDS011;12599;52.426;13.330;2022-09-12T14:58:36;1.30;;;1.00;;
24419;SDS011;12599;52.426;13.330;2022-09-12T15:06:17;2.23;;;1.20;;
24419;SDS011;12599;52.426;13.330;2022-09-12T15:09:02;2.70;;;1.20;;
24419;SDS011;12599;52.426;13.330;2022-09-12T15:11:36;1.30;;;1.00;;
24419;SDS011;12599;52.426;13.330;2022-09-12T15:14:21;1.47;;;0.97;;
24419;SDS011;12599;52.426;13.330;2022-09-12T15:16:47;1.20;;;1.00;;
24419;SDS011;12599;52.426;13.330;2022-09-12T15:19:12;2.80;;;1.23;;
24419;SDS011;12599;52.426;13.330;2022-09-12T15:21:38;1.57;;;1.20;;
24419;SDS011;12599;52.426;13.330;2022-09-12T15:24:04;3.77;;;1.60;;
24419;SDS011;12599;52.426;13.330;2022-09-12T15:26:29;3.33;;;1.50;;
24419;SDS011;12599;52.426;13.330;2022-09-12T15:28:55;2.70;;;1.43;;
24419;SDS011;12599;52.426;13.330;2022-09-12T15:31:25;1.10;;;1.00;;
24419;SDS011;12599;52.426;13.330;2022-09-12T15:33:54;2.23;;;1.27;;
24419;SDS011;12599;52.426;13.330;2022-09-12T15:36:21;0.87;;;0.87;;
24419;SDS011;12599;52.426;13.330;2022-09-12T15:38:48;2.10;;;1.13;;
24419;SDS011;12599;52.426;13.330;2022-09-12T15:41:18;1.43;;;1.33;;
24419;SDS011;12599;52.426;13.330;2022-09-12T15:44:02;1.63;;;1.20;;
24419;SDS011;12599;52.426;13.330;2022-09-12T15:46:29;1.93;;;1.30;;
24419;SDS011;12599;52.426;13.330;2022-09-12T15:48:54;2.00;;;1.20;;
24419;SDS011;12599;52.426;13.330;2022-09-12T15:51:20;1.10;;;1.00;;
24419;SDS011;12599;52.426;13.330;2022-09-12T15:53:46;1.20;;;1.10;;
24419;SDS011;12599;52.426;13.330;2022-09-12T15:56:17;3.50;;;1.30;;
24419;SDS011;12599;52.426;13.330;2022-09-12T15:58:44;3.07;;;1.40;;
24419;SDS011;12599;52.426;13.330;2022-09-12T16:01:13;1.17;;;1.03;;
24419;SDS011;12599;52.426;13.330;2022-09-12T16:03:40;3.43;;;2.00;;
24419;SDS011;12599;52.426;13.330;2022-09-12T16:06:06;2.37;;;2.00;;
24419;SDS011;12599;52.426;13.330;2022-09-12T16:08:33;2.20;;;1.40;;
24419;SDS011;12599;52.426;13.330;2022-09-12T16:11:07;2.90;;;1.63;;
24419;SDS011;12599;52.426;13.330;2022-09-12T16:13:35;2.23;;;1.47;;
24419;SDS011;12599;52.426;13.330;2022-09-12T16:16:01;1.83;;;1.30;;
24419;SDS011;12599;52.426;13.330;2022-09-12T16:18:28;2.37;;;1.20;;
24419;SDS011;12599;52.426;13.330;2022-09-12T16:20:54;1.90;;;1.30;;
24419;SDS011;12599;52.426;13.330;2022-09-12T16:23:20;3.53;;;1.60;;
24419;SDS011;12599;52.426;13.330;2022-09-12T16:25:54;1.30;;;1.20;;
24419;SDS011;12599;52.426;13.330;2022-09-12T16:28:24;3.70;;;1.30;;
24419;SDS011;12599;52.426;13.330;2022-09-12T16:30:56;2.00;;;1.27;;
24419;SDS011;12599;52.426;13.330;2022-09-12T16:33:23;1.30;;;1.20;;
24419;SDS011;12599;52.426;13.330;2022-09-12T16:35:49;1.70;;;1.47;;
24419;SDS011;12599;52.426;13.330;2022-09-12T16:38:18;1.50;;;1.40;;
24419;SDS011;12599;52.426;13.330;2022-09-12T16:40:45;1.73;;;1.57;;
24419;SDS011;12599;52.426;13.330;2022-09-12T16:43:10;1.57;;;1.20;;
24419;SDS011;12599;52.426;13.330;2022-09-12T16:45:37;2.03;;;1.40;;
24419;SDS011;12599;52.426;13.330;2022-09-12T16:48:03;2.03;;;1.77;;
24419;SDS011;12599;52.426;13.330;2022-09-12T16:50:28;1.50;;;1.40;;
24419;SDS011;12599;52.426;13.330;2022-09-12T16:52:54;1.73;;;1.43;;
24419;SDS011;12599;52.426;13.330;2022-09-12T16:55:19;2.73;;;1.70;;
24419;SDS011;12599;52.426;13.330;2022-09-12T16:57:46;1.40;;;1.30;;
24419;SDS011;12599;52.426;13.330;2022-09-12T17:00:13;5.30;;;1.80;;
24419;SDS011;12599;52.426;13.330;2022-09-12T17:02:39;2.87;;;2.03;;
24419;SDS011;12599;52.426;13.330;2022-09-12T17:05:05;2.93;;;1.70;;
24419;SDS011;12599;52.426;13.330;2022-09-12T17:07:30;2.83;;;1.77;;
24419;SDS011;12599;52.426;13.330;2022-09-12T17:09:57;2.00;;;1.80;;
24419;SDS011;12599;52.426;13.330;2022-09-12T17:12:22;2.57;;;1.70;;
24419;SDS011;12599;52.426;13.330;2022-09-12T17:14:48;2.00;;;1.60;;
24419;SDS011;12599;52.426;13.330;2022-09-12T17:17:13;2.23;;;1.70;;
24419;SDS011;12599;52.426;13.330;2022-09-12T17:19:39;1.87;;;1.70;;
24419;SDS011;12599;52.426;13.330;2022-09-12T17:22:05;3.97;;;1.90;;
24419;SDS011;12599;52.426;13.330;2022-09-12T17:24:30;3.57;;;2.20;;
24419;SDS011;12599;52.426;13.330;2022-09-12T17:26:56;3.33;;;2.00;;
24419;SDS011;12599;52.426;13.330;2022-09-12T17:29:23;3.77;;;2.17;;
24419;SDS011;12599;52.426;13.330;2022-09-12T17:31:48;6.10;;;2.13;;
24419;SDS011;12599;52.426;13.330;2022-09-12T17:34:14;3.57;;;1.60;;
24419;SDS011;12599;52.426;13.330;2022-09-12T17:36:41;3.83;;;1.80;;
24419;SDS011;12599;52.426;13.330;2022-09-12T17:39:08;3.40;;;1.83;;
24419;SDS011;12599;52.426;13.330;2022-09-12T17:41:35;4.03;;;1.93;;
24419;SDS011;12599;52.426;13.330;2022-09-12T17:44:02;2.90;;;2.07;;
24419;SDS011;12599;52.426;13.330;2022-09-12T17:46:36;3.53;;;2.07;;
24419;SDS011;12599;52.426;13.330;2022-09-12T17:49:05;1.93;;;1.80;;